createdAt,value
2018-04-23T00:03:35.488Z,9.97
2018-04-23T00:07:38.016Z,9.20
2018-04-23T00:11:40.566Z,9.40
2018-04-23T00:15:43.077Z,9.63
2018-04-23T00:19:46.385Z,10.37
2018-04-23T00:23:48.915Z,9.93
2018-04-23T00:27:51.448Z,12.77
2018-04-23T00:31:54.771Z,16.47
2018-04-23T00:35:57.280Z,13.87
2018-04-23T00:39:59.820Z,10.30
2018-04-23T00:44:02.359Z,15.87
2018-04-23T00:48:04.899Z,10.37
2018-04-23T00:52:07.436Z,15.77
2018-04-23T00:56:09.946Z,10.77
2018-04-23T01:00:13.252Z,12.40
2018-04-23T01:04:16.551Z,16.10
2018-04-23T01:08:19.861Z,11.70
2018-04-23T01:12:23.181Z,12.03
2018-04-23T01:16:25.698Z,11.93
2018-04-23T01:20:28.241Z,12.50
2018-04-23T01:24:30.784Z,15.23
2018-04-23T01:28:33.332Z,15.10
2018-04-23T01:32:35.883Z,12.27
2018-04-23T01:36:39.200Z,13.03
2018-04-23T01:40:42.287Z,12.07
2018-04-23T01:44:45.601Z,16.77
2018-04-23T01:48:48.908Z,14.80
2018-04-23T01:52:51.464Z,13.17
2018-04-23T01:56:54.002Z,13.30
2018-04-23T02:00:56.523Z,15.30
2018-04-23T02:04:59.060Z,13.57
2018-04-23T02:09:01.625Z,14.37
2018-04-23T02:13:04.950Z,13.07
2018-04-23T02:17:07.488Z,13.47
2018-04-23T02:21:10.008Z,14.87
2018-04-23T02:25:12.548Z,16.50
2018-04-23T02:29:15.083Z,15.27
2018-04-23T02:33:17.647Z,13.73
2018-04-23T02:37:20.959Z,20.63
2018-04-23T02:41:23.488Z,17.30
2018-04-23T02:45:26.036Z,21.50
2018-04-23T02:49:29.339Z,17.90
2018-04-23T02:53:31.887Z,18.50
2018-04-23T02:57:34.437Z,23.33
2018-04-23T03:01:36.973Z,19.17
2018-04-23T03:05:40.280Z,19.77
2018-04-23T03:09:43.590Z,25.53
2018-04-23T03:13:46.892Z,22.37
2018-04-23T03:17:50.199Z,19.30
2018-04-23T03:21:53.493Z,14.37
2018-04-23T03:25:56.801Z,11.67
2018-04-23T03:30:00.108Z,17.17
2018-04-23T03:34:02.681Z,19.37
2018-04-23T03:38:05.979Z,15.63
2018-04-23T03:42:09.263Z,11.27
2018-04-23T03:46:11.808Z,14.23
2018-04-23T03:50:14.352Z,16.07
2018-04-23T03:54:16.909Z,16.40
2018-04-23T03:58:19.457Z,12.90
2018-04-23T04:02:21.977Z,13.13
2018-04-23T04:06:24.520Z,15.93
2018-04-23T04:10:27.061Z,16.67
2018-04-23T04:14:41.309Z,14.10
2018-04-23T04:18:45.676Z,20.77
2018-04-23T04:22:48.195Z,22.30
2018-04-23T04:26:51.604Z,17.40
2018-04-23T04:30:54.142Z,19.10
2018-04-23T04:34:56.684Z,18.80
2018-04-23T04:38:59.228Z,19.63
2018-04-23T04:43:01.755Z,23.00
2018-04-23T04:47:04.298Z,24.57
2018-04-23T04:51:06.864Z,24.13
2018-04-23T04:55:10.172Z,32.20
2018-04-23T04:59:13.481Z,30.53
2018-04-23T05:03:16.780Z,31.17
2018-04-23T05:07:20.088Z,31.93
2018-04-23T05:11:23.399Z,33.03
2018-04-23T05:15:25.941Z,30.23
2018-04-23T05:19:28.484Z,32.63
2018-04-23T05:23:31.004Z,29.47
2018-04-23T05:27:33.535Z,32.37
2018-04-23T05:31:36.096Z,37.27
2018-04-23T05:35:39.426Z,36.73
2018-04-23T05:39:41.964Z,33.00
2018-04-23T05:43:44.492Z,34.63
2018-04-23T05:47:47.028Z,34.50
2018-04-23T05:51:49.566Z,44.80
2018-04-23T05:55:52.116Z,30.90
2018-04-23T05:59:54.656Z,30.63
2018-04-23T06:03:57.185Z,29.73
2018-04-23T06:07:59.726Z,32.80
2018-04-23T06:12:03.385Z,33.30
2018-04-23T06:16:05.918Z,38.33
2018-04-23T06:20:08.460Z,26.40
2018-04-23T06:24:10.978Z,30.80
2018-04-23T06:28:13.572Z,27.83
2018-04-23T06:32:16.844Z,28.87
2018-04-23T06:36:20.146Z,29.73
2018-04-23T06:40:23.456Z,29.37
2018-04-23T06:44:26.748Z,32.37
2018-04-23T06:48:30.057Z,31.67
2018-04-23T06:52:33.370Z,25.17
2018-04-23T06:56:35.912Z,27.07
2018-04-23T07:00:38.447Z,21.70
2018-04-23T07:04:41.014Z,24.40
2018-04-23T07:08:44.299Z,31.00
2018-04-23T07:12:46.840Z,19.37
2018-04-23T07:16:49.392Z,23.80
2018-04-23T07:20:52.702Z,19.90
2018-04-23T07:24:55.255Z,20.90
2018-04-23T07:28:57.771Z,19.27
2018-04-23T07:33:00.315Z,20.03
2018-04-23T07:37:02.857Z,18.10
2018-04-23T07:41:05.408Z,22.73
2018-04-23T07:45:08.707Z,18.67
2018-04-23T07:49:11.232Z,18.27
2018-04-23T07:53:13.800Z,20.70
2018-04-23T07:57:16.335Z,16.47
2018-04-23T08:01:18.873Z,25.33
2018-04-23T08:05:21.411Z,22.20
2018-04-23T08:09:23.926Z,28.77
2018-04-23T08:13:27.237Z,20.43
2018-04-23T08:17:29.787Z,20.60
2018-04-23T08:21:32.327Z,17.70
2018-04-23T08:25:34.871Z,13.20
2018-04-23T08:29:37.384Z,12.33
2018-04-23T08:33:39.924Z,14.43
2018-04-23T08:37:42.465Z,12.77
2018-04-23T08:41:44.996Z,8.90
2018-04-23T08:45:47.540Z,10.33
2018-04-23T08:49:50.058Z,6.83
2018-04-23T08:53:52.595Z,6.97
2018-04-23T08:57:55.132Z,7.63
2018-04-23T09:01:57.664Z,5.40
2018-04-23T09:06:00.200Z,8.70
2018-04-23T09:10:02.724Z,8.33
2018-04-23T09:14:06.023Z,8.17
2018-04-23T09:18:09.321Z,10.83
2018-04-23T09:22:12.625Z,7.43
2018-04-23T09:26:15.928Z,7.03
2018-04-23T09:30:19.220Z,10.43
2018-04-23T09:34:22.524Z,7.17
2018-04-23T09:38:25.820Z,9.10
2018-04-23T09:42:28.351Z,13.10
2018-04-23T09:46:30.901Z,8.50
2018-04-23T09:50:34.209Z,8.47
2018-04-23T09:54:37.491Z,7.87
2018-04-23T09:58:40.053Z,7.70
2018-04-23T10:02:42.583Z,13.43
2018-04-23T10:06:45.885Z,9.00
2018-04-23T10:10:48.424Z,9.40
2018-04-23T10:14:50.952Z,8.97
2018-04-23T10:18:54.247Z,8.07
2018-04-23T10:22:57.557Z,8.53
2018-04-23T10:27:00.855Z,9.80
2018-04-23T10:31:04.159Z,7.70
2018-04-23T10:35:07.441Z,7.87
2018-04-23T10:39:09.985Z,11.43
2018-04-23T10:43:12.528Z,6.93
2018-04-23T10:51:25.599Z,5.20
2018-04-23T10:55:28.111Z,5.20
2018-04-23T10:59:30.642Z,6.17
2018-04-23T11:03:33.168Z,9.30
2018-04-23T11:07:35.721Z,4.50
2018-04-23T11:11:39.713Z,7.23
2018-04-23T11:15:42.233Z,5.57
2018-04-23T11:19:45.543Z,15.47
2018-04-23T11:23:48.854Z,11.83
2018-04-23T11:27:51.405Z,7.03
2018-04-23T11:31:53.963Z,7.67
2018-04-23T11:36:05.108Z,6.90
2018-04-23T11:40:07.639Z,8.37
2018-04-23T11:44:10.176Z,6.13
2018-04-23T11:48:12.717Z,5.30
2018-04-23T11:52:15.265Z,6.47
2018-04-23T11:56:17.804Z,6.97
2018-04-23T12:00:20.315Z,6.03
2018-04-23T12:04:23.008Z,5.83
2018-04-23T12:08:25.551Z,5.20
2018-04-23T12:12:28.113Z,7.60
2018-04-23T12:16:30.649Z,6.33
2018-04-23T12:20:33.949Z,6.30
2018-04-23T12:24:37.265Z,9.97
2018-04-23T12:28:39.825Z,8.47
2018-04-23T12:32:42.501Z,6.97
2018-04-23T12:36:45.838Z,5.57
2018-04-23T12:40:49.125Z,8.00
2018-04-23T12:44:51.665Z,7.27
2018-04-23T12:48:54.306Z,5.77
2018-04-23T12:52:57.611Z,6.23
2018-04-23T12:57:00.920Z,7.10
2018-04-23T13:01:03.447Z,4.90
2018-04-23T13:05:05.981Z,9.37
2018-04-23T13:09:09.290Z,6.10
2018-04-23T13:13:11.824Z,5.70
2018-04-23T13:17:14.357Z,7.17
2018-04-23T13:21:17.632Z,4.63
2018-04-23T13:25:20.164Z,8.00
2018-04-23T13:29:22.712Z,8.87
2018-04-23T13:33:26.007Z,7.47
2018-04-23T13:37:28.540Z,4.40
2018-04-23T13:41:31.063Z,6.20
2018-04-23T13:45:33.597Z,6.57
2018-04-23T13:49:36.144Z,15.70
2018-04-23T13:53:39.564Z,4.30
2018-04-23T13:57:42.881Z,7.63
2018-04-23T14:01:45.400Z,5.13
2018-04-23T14:05:47.940Z,8.43
2018-04-23T14:09:51.240Z,5.10
2018-04-23T14:13:53.816Z,6.57
2018-04-23T14:17:57.141Z,6.13
2018-04-23T14:22:00.431Z,6.00
2018-04-23T14:26:02.984Z,5.67
2018-04-23T14:30:05.529Z,6.10
2018-04-23T14:34:08.063Z,6.37
2018-04-23T14:38:10.595Z,7.77
2018-04-23T14:42:13.140Z,7.73
2018-04-23T14:46:15.654Z,6.17
2018-04-23T14:50:18.201Z,6.37
2018-04-23T14:54:20.736Z,8.57
2018-04-23T14:58:23.285Z,6.63
2018-04-23T15:02:25.827Z,6.03
2018-04-23T15:06:28.349Z,8.73
2018-04-23T15:10:30.891Z,7.10
2018-04-23T15:14:34.187Z,7.33
2018-04-23T15:18:36.719Z,8.83
2018-04-23T15:22:39.258Z,7.87
2018-04-23T15:26:41.773Z,5.97
2018-04-23T15:30:44.312Z,6.00
2018-04-23T15:34:46.853Z,6.53
2018-04-23T15:38:49.387Z,6.50
2018-04-23T15:42:51.919Z,7.77
2018-04-23T15:46:54.436Z,5.60
2018-04-23T15:50:57.737Z,6.63
2018-04-23T15:55:01.027Z,6.33
2018-04-23T15:59:03.556Z,5.97
2018-04-23T16:03:06.099Z,7.97
2018-04-23T16:07:09.380Z,5.53
2018-04-23T16:11:11.912Z,6.23
2018-04-23T16:15:14.452Z,5.87
2018-04-23T16:19:16.985Z,5.70
2018-04-23T16:23:19.525Z,5.10
2018-04-23T16:27:22.036Z,5.83
2018-04-23T16:31:26.877Z,6.50
2018-04-23T16:35:29.618Z,8.03
2018-04-23T16:39:32.158Z,8.77
2018-04-23T16:43:34.695Z,6.30
2018-04-23T16:47:37.206Z,6.60
2018-04-23T16:51:40.509Z,6.30
2018-04-23T16:55:43.818Z,6.63
2018-04-23T16:59:47.128Z,6.50
2018-04-23T17:03:50.433Z,9.50
2018-04-23T17:07:53.767Z,6.10
2018-04-23T17:11:56.312Z,5.27
2018-04-23T17:15:59.616Z,7.63
2018-04-23T17:20:02.921Z,4.80
2018-04-23T17:24:05.456Z,5.70
2018-04-23T17:28:07.993Z,5.10
2018-04-23T17:32:10.507Z,6.47
2018-04-23T17:36:13.087Z,4.17
2018-04-23T17:40:15.617Z,5.27
2018-04-23T17:44:18.156Z,3.57
2018-04-23T17:48:20.694Z,5.27
2018-04-23T17:52:23.207Z,4.83
2018-04-23T17:56:26.503Z,4.83
2018-04-23T18:00:29.805Z,4.90
2018-04-23T18:04:33.102Z,3.93
2018-04-23T18:08:36.438Z,3.70
2018-04-23T18:12:38.965Z,8.83
2018-04-23T18:16:41.504Z,4.20
2018-04-23T18:20:44.036Z,6.17
2018-04-23T18:24:46.568Z,6.73
2018-04-23T18:28:49.109Z,5.90
2018-04-23T18:32:51.624Z,5.07
2018-04-23T18:36:54.925Z,5.13
2018-04-23T18:40:58.225Z,5.23
2018-04-23T18:45:01.537Z,3.43
2018-04-23T18:49:04.075Z,5.80
2018-04-23T18:53:06.591Z,7.57
2018-04-23T18:57:09.898Z,5.67
2018-04-23T19:01:13.250Z,6.07
2018-04-23T19:05:15.759Z,4.47
2018-04-23T19:09:18.292Z,6.77
2018-04-23T19:13:20.817Z,4.23
2018-04-23T19:17:23.362Z,5.27
2018-04-23T19:21:25.895Z,3.50
2018-04-23T19:25:28.439Z,5.87
2018-04-23T19:29:30.973Z,6.63
2018-04-23T19:33:33.485Z,8.10
2018-04-23T19:37:36.785Z,8.17
2018-04-23T19:41:40.090Z,3.60
2018-04-23T19:45:43.392Z,6.00
2018-04-23T19:49:46.712Z,4.57
2018-04-23T19:53:49.225Z,11.80
2018-04-23T19:57:51.761Z,4.60
2018-04-23T20:01:55.057Z,5.83
2018-04-23T20:05:58.351Z,5.07
2018-04-23T20:10:00.889Z,7.60
2018-04-23T20:14:03.430Z,4.83
2018-04-23T20:18:06.734Z,6.32
2018-04-23T20:22:09.725Z,4.00
2018-04-23T20:26:12.296Z,7.40
2018-04-23T20:30:14.976Z,4.83
2018-04-23T20:34:17.508Z,7.97
2018-04-23T20:38:20.024Z,4.80
2018-04-23T20:42:22.701Z,11.03
2018-04-23T20:46:26.528Z,3.27
2018-04-23T20:50:29.065Z,4.90
2018-04-23T20:54:32.358Z,7.63
2018-04-23T20:58:35.640Z,8.40
2018-04-23T21:02:38.171Z,11.47
2018-04-23T21:06:40.716Z,5.33
2018-04-23T21:10:43.248Z,5.63
2018-04-23T21:14:45.780Z,6.13
2018-04-23T21:18:48.305Z,7.43
2018-04-23T21:22:50.848Z,7.70
2018-04-23T21:26:53.392Z,4.50
2018-04-23T21:30:55.950Z,6.37
2018-04-23T21:34:59.256Z,6.17
2018-04-23T21:39:02.544Z,5.73
2018-04-23T21:43:05.850Z,5.13
2018-04-23T21:47:09.155Z,7.63
2018-04-23T21:51:11.710Z,5.77
2018-04-23T21:55:14.251Z,5.70
2018-04-23T21:59:16.775Z,19.43
2018-04-23T22:03:19.324Z,4.10
2018-04-23T22:07:21.865Z,7.57
2018-04-23T22:11:24.392Z,4.63
2018-04-23T22:15:26.925Z,6.33
2018-04-23T22:19:29.437Z,6.20
2018-04-23T22:23:31.977Z,5.53
2018-04-23T22:27:34.515Z,6.03
2018-04-23T22:31:37.050Z,9.13
2018-04-23T22:35:39.609Z,5.37
2018-04-23T22:39:42.148Z,7.03
2018-04-23T22:43:44.672Z,4.73
2018-04-23T22:47:47.204Z,4.53
2018-04-23T22:51:49.740Z,6.30
2018-04-23T22:55:53.039Z,7.93
2018-04-23T22:59:55.584Z,8.33
2018-04-23T23:03:58.100Z,6.50
2018-04-23T23:08:00.640Z,8.60
2018-04-23T23:12:03.199Z,8.80
2018-04-23T23:16:05.741Z,7.07
2018-04-23T23:20:09.040Z,4.93
2018-04-23T23:24:12.330Z,8.30
2018-04-23T23:28:14.868Z,5.43
2018-04-23T23:32:17.398Z,5.97
2018-04-23T23:36:19.931Z,6.67
2018-04-23T23:40:22.470Z,5.80
2018-04-23T23:44:24.985Z,6.63
2018-04-23T23:48:27.615Z,7.57
2018-04-23T23:52:30.145Z,5.70
2018-04-23T23:56:32.679Z,7.20
